Time;durP1;ratioP1;P1;durP2;ratioP2;P2;SDS_P1;SDS_P2;PMS_P1;PMS_P2;Temp;Humidity;BMP_temperature;BMP_pressure;BME280_temperature;BME280_humidity;BME280_pressure;Samples;Min_cycle;Max_cycle;Signal;HPM_P1;HPM_P2
2022/04/13 00:00:33;;;;;;;;;;;12.70;99.90;;;;;;5177400;27;20396;-71
2022/04/13 00:02:59;;;;;;;;;;;12.70;99.90;;;;;;5177530;27;19922;-70
2022/04/13 00:05:24;;;;;;;;;;;12.60;99.90;;;;;;5158886;27;19974;-72
2022/04/13 00:07:50;;;;;;;;;;;13.50;99.90;;;;;;5159301;27;19923;-72
2022/04/13 00:10:15;;;;;;;;;;;12.60;99.90;;;;;;5158977;27;19929;-70
2022/04/13 00:12:41;;;;;;;;;;;12.60;99.90;;;;;;5177497;27;19986;-70
2022/04/13 00:15:08;;;;;;;;;;;12.50;99.90;;;;;;5158362;27;20297;-70
2022/04/13 00:17:35;;;;;;;;;;;12.50;99.90;;;;;;5177176;27;20392;-70
2022/04/13 00:20:00;;;;;;;;;;;12.50;99.90;;;;;;5158469;27;20399;-71
2022/04/13 00:22:26;;;;;;;;;;;12.50;99.90;;;;;;5177509;27;19922;-70
2022/04/13 00:24:51;;;;;;;;;;;12.50;99.90;;;;;;5177266;27;19930;-69
2022/04/13 00:27:17;;;;;;;;;;;12.50;99.90;;;;;;5176762;27;20021;-72
2022/04/13 00:29:43;;;;;;;;;;;12.50;99.90;;;;;;5176971;27;19922;-73
2022/04/13 00:32:08;;;;;;;;;;;12.40;99.90;;;;;;5158581;27;20381;-71
2022/04/13 00:34:34;;;;;;;;;;;12.40;99.90;;;;;;5176934;27;19922;-69
2022/04/13 00:36:59;;;;;;;;;;;12.40;99.90;;;;;;5158232;27;19923;-70
2022/04/13 00:39:25;;;;;;;;;;;11.50;99.90;;;;;;5176960;27;19982;-70
2022/04/13 00:41:57;;;;;;;;;;;12.30;99.90;;;;;;5176975;27;19978;-70
2022/04/13 00:44:24;;;;;;;;;;;12.30;99.90;;;;;;5158384;27;19930;-69
2022/04/13 00:46:50;;;;;;;;;;;12.30;99.90;;;;;;5176664;27;19922;-69
2022/04/13 00:49:16;;;;;;;;;;;12.30;99.90;;;;;;5158225;27;19923;-71
2022/04/13 00:51:42;;;;;;;;;;;12.30;99.90;;;;;;5176707;27;20254;-71
2022/04/13 00:54:08;;;;;;;;;;;13.20;99.90;;;;;;5158481;27;19923;-71
2022/04/13 00:56:35;;;;;;;;;;;12.30;99.90;;;;;;5158038;27;20436;-69
2022/04/13 00:59:11;;;;;;;;;;;11.60;99.90;;;;;;5176512;27;20294;-71
2022/04/13 01:01:37;;;;;;;;;;;12.20;99.90;;;;;;5158095;27;20006;-71
2022/04/13 01:04:04;;;;;;;;;;;12.20;99.90;;;;;;5158105;27;19922;-70
2022/04/13 01:06:30;;;;;;;;;;;12.20;99.90;;;;;;5175891;27;19930;-69
2022/04/13 01:08:57;;;;;;;;;;;12.10;99.90;;;;;;5140519;27;19923;-70
2022/04/13 01:11:26;;;;;;;;;;;12.10;99.90;;;;;;5176409;27;19923;-70
2022/04/13 01:13:54;;;;;;;;;;;12.10;99.90;;;;;;5158115;27;19927;-70
2022/04/13 01:16:21;;;;;;;;;;;12.30;99.90;;;;;;5176266;27;19973;-71
2022/04/13 01:18:47;;;;;;;;;;;12.50;99.90;;;;;;5176194;27;19923;-71
2022/04/13 01:21:15;;;;;;;;;;;12.10;99.90;;;;;;5157690;27;19923;-72
2022/04/13 01:23:41;;;;;;;;;;;12.10;99.90;;;;;;5157751;27;20363;-71
2022/04/13 01:26:10;;;;;;;;;;;12.10;99.90;;;;;;5176203;27;19922;-70
2022/04/13 01:28:37;;;;;;;;;;;12.10;99.90;;;;;;5176293;27;19923;-71
2022/04/13 01:31:03;;;;;;;;;;;12.10;99.90;;;;;;5176023;27;19923;-71
2022/04/13 01:33:29;;;;;;;;;;;12.10;99.90;;;;;;5176069;27;19945;-72
2022/04/13 01:36:00;;;;;;;;;;;12.10;99.90;;;;;;5176004;27;20358;-71
2022/04/13 01:38:26;;;;;;;;;;;12.00;99.90;;;;;;5157891;27;20365;-71
2022/04/13 01:40:52;;;;;;;;;;;12.00;99.90;;;;;;5157856;27;19922;-71
2022/04/13 01:43:18;;;;;;;;;;;12.10;99.90;;;;;;5157784;27;20389;-71
2022/04/13 01:45:43;;;;;;;;;;;12.00;99.90;;;;;;5175963;27;19923;-71
2022/04/13 01:48:09;;;;;;;;;;;12.10;99.90;;;;;;5157517;27;19923;-70
2022/04/13 01:50:35;;;;;;;;;;;12.00;99.90;;;;;;5175830;27;19929;-70
2022/04/13 01:53:00;;;;;;;;;;;12.10;99.90;;;;;;5176225;27;19927;-70
2022/04/13 01:55:26;;;;;;;;;;;12.70;99.90;;;;;;5176079;27;19923;-71
2022/04/13 01:57:51;;;;;;;;;;;12.00;99.90;;;;;;5176221;27;20399;-69
2022/04/13 02:00:17;;;;;;;;;;;12.20;99.90;;;;;;5175967;27;19922;-72
2022/04/13 02:02:43;;;;;;;;;;;12.10;99.90;;;;;;5175745;27;19923;-69
2022/04/13 02:05:09;;;;;;;;;;;12.10;99.90;;;;;;5175730;27;19923;-71
2022/04/13 02:07:35;;;;;;;;;;;12.20;99.90;;;;;;5175737;27;20377;-69
2022/04/13 02:10:01;;;;;;;;;;;12.20;99.90;;;;;;5175736;27;20017;-72
2022/04/13 02:12:26;;;;;;;;;;;12.20;99.90;;;;;;5175854;27;19923;-69
2022/04/13 02:14:52;;;;;;;;;;;12.20;99.90;;;;;;5157587;27;19922;-69
2022/04/13 02:17:19;;;;;;;;;;;12.20;99.90;;;;;;5157399;27;20391;-70
2022/04/13 02:19:45;;;;;;;;;;;12.30;99.90;;;;;;5178901;27;19923;-70
2022/04/13 02:22:11;;;;;;;;;;;12.20;99.90;;;;;;5161087;27;19949;-70
2022/04/13 02:24:40;;;;;;;;;;;12.30;99.90;;;;;;5179686;27;19930;-70
2022/04/13 02:27:07;;;;;;;;;;;12.30;99.90;;;;;;5179291;27;19922;-71
2022/04/13 02:29:35;;;;;;;;;;;12.20;99.90;;;;;;5178693;27;20200;-68
2022/04/13 02:32:01;;;;;;;;;;;12.20;99.90;;;;;;5160517;27;19923;-69
2022/04/13 02:34:26;;;;;;;;;;;12.20;99.90;;;;;;5179234;27;19929;-70
2022/04/13 02:36:52;;;;;;;;;;;12.20;99.90;;;;;;5179543;27;20017;-72
2022/04/13 02:39:17;;;;;;;;;;;12.20;99.90;;;;;;5161150;27;20332;-69
2022/04/13 02:41:43;;;;;;;;;;;12.10;99.90;;;;;;5161014;27;20289;-72
2022/04/13 02:44:09;;;;;;;;;;;12.10;99.90;;;;;;5179240;27;19922;-70
2022/04/13 02:46:35;;;;;;;;;;;12.00;99.90;;;;;;5179035;27;20009;-69
2022/04/13 02:49:00;;;;;;;;;;;12.10;99.90;;;;;;5179003;27;20325;-71
2022/04/13 02:51:26;;;;;;;;;;;12.00;99.90;;;;;;5178773;27;19974;-69
2022/04/13 02:53:52;;;;;;;;;;;12.00;99.90;;;;;;5179064;27;20034;-70
2022/04/13 02:56:17;;;;;;;;;;;11.90;99.90;;;;;;5179018;27;19930;-69
2022/04/13 02:58:43;;;;;;;;;;;11.90;99.90;;;;;;5178852;27;19923;-70
2022/04/13 03:01:08;;;;;;;;;;;11.90;99.90;;;;;;5178897;27;19930;-70
2022/04/13 03:03:34;;;;;;;;;;;11.90;99.90;;;;;;5178807;27;19978;-71
2022/04/13 03:06:00;;;;;;;;;;;11.80;99.90;;;;;;5178632;27;19922;-69
2022/04/13 03:08:25;;;;;;;;;;;11.50;99.90;;;;;;5178846;27;20393;-71
2022/04/13 03:10:51;;;;;;;;;;;11.80;99.90;;;;;;5178658;27;19927;-70
2022/04/13 03:13:17;;;;;;;;;;;11.80;99.90;;;;;;5160320;27;20352;-70
2022/04/13 03:15:42;;;;;;;;;;;11.80;99.90;;;;;;5160030;27;20369;-70
2022/04/13 03:18:08;;;;;;;;;;;11.70;99.90;;;;;;5160142;27;19931;-72
2022/04/13 03:20:34;;;;;;;;;;;11.80;99.90;;;;;;5178336;27;19923;-72
2022/04/13 03:23:00;;;;;;;;;;;11.70;99.90;;;;;;5178739;27;19923;-70
2022/04/13 03:25:26;;;;;;;;;;;11.70;99.90;;;;;;5178567;27;19930;-70
2022/04/13 03:27:51;;;;;;;;;;;11.80;99.90;;;;;;5178307;27;20305;-71
2022/04/13 03:30:18;;;;;;;;;;;11.90;99.90;;;;;;5177355;27;19930;-70
2022/04/13 03:32:43;;;;;;;;;;;11.90;99.90;;;;;;5178077;27;19923;-71
2022/04/13 03:35:12;;;;;;;;;;;12.10;99.90;;;;;;5178133;27;19922;-70
2022/04/13 03:37:39;;;;;;;;;;;12.00;99.90;;;;;;5178031;27;19970;-70
2022/04/13 03:40:05;;;;;;;;;;;11.90;99.90;;;;;;5178203;27;19929;-69
2022/04/13 03:42:35;;;;;;;;;;;11.90;99.90;;;;;;5178072;27;20421;-69
2022/04/13 03:45:01;;;;;;;;;;;11.80;99.90;;;;;;5177959;27;19927;-70
2022/04/13 03:47:26;;;;;;;;;;;11.80;99.90;;;;;;5159188;27;20362;-72
2022/04/13 03:49:52;;;;;;;;;;;11.70;99.90;;;;;;5177709;27;19930;-71
2022/04/13 03:52:17;;;;;;;;;;;11.70;99.90;;;;;;5178020;27;19978;-71
2022/04/13 03:54:43;;;;;;;;;;;11.60;99.90;;;;;;5177975;27;19982;-71
2022/04/13 03:57:09;;;;;;;;;;;11.60;99.90;;;;;;5177849;27;19923;-71
2022/04/13 03:59:34;;;;;;;;;;;11.50;99.90;;;;;;5177776;27;19945;-69
2022/04/13 04:02:00;;;;;;;;;;;11.50;99.90;;;;;;5177668;27;19965;-70
2022/04/13 04:04:25;;;;;;;;;;;11.50;99.90;;;;;;5177505;27;19923;-69
2022/04/13 04:06:51;;;;;;;;;;;11.40;99.90;;;;;;5159180;27;19933;-71
2022/04/13 04:09:16;;;;;;;;;;;11.40;99.90;;;;;;5177658;27;20353;-70
2022/04/13 04:11:42;;;;;;;;;;;11.30;99.90;;;;;;5177685;27;19946;-73
2022/04/13 04:14:07;;;;;;;;;;;11.30;99.90;;;;;;5159180;27;20021;-70
2022/04/13 04:16:33;;;;;;;;;;;11.30;99.90;;;;;;5159097;27;19981;-72
2022/04/13 04:18:58;;;;;;;;;;;11.30;99.90;;;;;;5177233;27;19922;-72
2022/04/13 04:21:24;;;;;;;;;;;11.20;99.90;;;;;;5177236;27;19923;-69
2022/04/13 04:23:49;;;;;;;;;;;11.30;99.90;;;;;;5177104;27;20381;-71
2022/04/13 04:26:15;;;;;;;;;;;11.30;99.90;;;;;;5177209;27;20377;-71
2022/04/13 04:28:41;;;;;;;;;;;11.30;99.90;;;;;;5177199;27;19933;-69
2022/04/13 04:31:07;;;;;;;;;;;11.40;99.90;;;;;;5176941;27;20448;-72
2022/04/13 04:33:33;;;;;;;;;;;11.40;99.90;;;;;;5158240;27;19962;-69
2022/04/13 04:35:58;;;;;;;;;;;11.50;99.90;;;;;;5158440;27;20006;-70
2022/04/13 04:38:26;;;;;;;;;;;11.60;99.90;;;;;;5176801;27;20385;-71
2022/04/13 04:40:52;;;;;;;;;;;11.60;99.90;;;;;;5176984;27;19923;-69
2022/04/13 04:43:18;;;;;;;;;;;11.70;99.90;;;;;;5158446;27;20284;-69
2022/04/13 04:45:43;;;;;;;;;;;11.80;99.90;;;;;;5158284;27;19930;-70
2022/04/13 04:48:09;;;;;;;;;;;11.80;99.90;;;;;;5158378;27;19975;-71
2022/04/13 04:50:35;;;;;;;;;;;11.90;99.90;;;;;;5176594;27;19982;-73
2022/04/13 04:53:00;;;;;;;;;;;11.90;99.90;;;;;;5176539;27;19929;-70
2022/04/13 04:55:26;;;;;;;;;;;11.90;99.90;;;;;;5176570;27;19922;-72
2022/04/13 04:57:51;;;;;;;;;;;11.90;99.90;;;;;;5158150;27;20436;-70
2022/04/13 05:00:18;;;;;;;;;;;11.90;99.90;;;;;;5176757;27;20424;-70
2022/04/13 05:02:48;;;;;;;;;;;10.90;99.90;;;;;;5176477;27;19923;-69
2022/04/13 05:05:14;;;;;;;;;;;11.90;99.90;;;;;;5157974;27;20021;-70
2022/04/13 05:07:40;;;;;;;;;;;11.90;99.90;;;;;;5158093;27;19980;-70
2022/04/13 05:10:06;;;;;;;;;;;11.90;99.90;;;;;;5157794;27;19923;-69
2022/04/13 05:12:40;;;;;;;;;;;11.90;99.90;;;;;;5176497;27;19923;-70
2022/04/13 05:15:06;;;;;;;;;;;11.90;99.90;;;;;;5176438;27;19978;-71
2022/04/13 05:17:32;;;;;;;;;;;11.90;99.90;;;;;;5140548;27;20326;-70
2022/04/13 05:19:57;;;;;;;;;;;11.90;99.90;;;;;;5176295;27;19927;-70
2022/04/13 05:22:23;;;;;;;;;;;11.90;99.90;;;;;;5157674;27;20392;-69
2022/04/13 05:24:49;;;;;;;;;;;11.80;99.90;;;;;;5176478;27;19923;-70
2022/04/13 05:27:15;;;;;;;;;;;11.80;99.90;;;;;;5176211;27;19923;-69
2022/04/13 05:29:40;;;;;;;;;;;11.80;99.90;;;;;;5176334;27;20282;-71
2022/04/13 05:32:06;;;;;;;;;;;12.10;99.90;;;;;;5176121;27;19982;-70
2022/04/13 05:34:32;;;;;;;;;;;11.80;99.90;;;;;;5176128;27;19923;-70
2022/04/13 05:36:57;;;;;;;;;;;11.80;99.90;;;;;;5176109;27;19923;-70
2022/04/13 05:39:23;;;;;;;;;;;11.90;99.90;;;;;;5140164;27;19971;-69
2022/04/13 05:41:48;;;;;;;;;;;11.80;99.90;;;;;;5175927;27;19930;-71
2022/04/13 05:44:14;;;;;;;;;;;11.90;99.90;;;;;;5176143;27;19930;-70
2022/04/13 05:46:40;;;;;;;;;;;11.80;99.90;;;;;;5176141;27;19923;-71
2022/04/13 05:49:05;;;;;;;;;;;11.80;99.90;;;;;;5157437;27;19922;-70
2022/04/13 05:51:31;;;;;;;;;;;11.80;99.90;;;;;;5175950;27;19926;-70
2022/04/13 05:53:57;;;;;;;;;;;11.80;99.90;;;;;;5159638;27;19923;-70
2022/04/13 05:56:22;;;;;;;;;;;11.80;99.90;;;;;;5180284;27;19929;-71
2022/04/13 05:58:48;;;;;;;;;;;11.80;99.90;;;;;;5180329;27;19974;-69
2022/04/13 06:01:13;;;;;;;;;;;11.90;99.90;;;;;;5161811;27;20379;-70
2022/04/13 06:03:39;;;;;;;;;;;11.90;99.90;;;;;;5161617;27;19922;-68
2022/04/13 06:06:04;;;;;;;;;;;11.90;99.90;;;;;;5180004;27;19931;-70
2022/04/13 06:08:30;;;;;;;;;;;11.90;99.90;;;;;;5179621;27;19929;-70
2022/04/13 06:10:55;;;;;;;;;;;11.90;99.90;;;;;;5179172;27;19922;-69
2022/04/13 06:13:21;;;;;;;;;;;11.90;99.90;;;;;;5161503;27;20038;-71
2022/04/13 06:15:46;;;;;;;;;;;11.90;99.90;;;;;;5160627;27;19922;-70
2022/04/13 06:18:12;;;;;;;;;;;12.00;99.90;;;;;;5160823;27;19931;-71
2022/04/13 06:20:37;;;;;;;;;;;12.00;99.90;;;;;;5161104;27;19923;-70
2022/04/13 06:23:03;;;;;;;;;;;12.00;99.90;;;;;;5178820;27;19923;-70
2022/04/13 06:25:29;;;;;;;;;;;12.10;99.90;;;;;;5178455;27;19930;-70
2022/04/13 06:27:55;;;;;;;;;;;12.10;99.90;;;;;;5179407;27;19927;-71
2022/04/13 06:30:20;;;;;;;;;;;12.10;99.90;;;;;;5179315;27;20342;-72
2022/04/13 06:32:46;;;;;;;;;;;12.20;99.90;;;;;;5179091;27;20381;-68
2022/04/13 06:35:16;;;;;;;;;;;12.20;99.90;;;;;;5178955;27;20376;-70
2022/04/13 06:37:43;;;;;;;;;;;12.30;99.90;;;;;;5159944;27;19979;-70
2022/04/13 06:40:09;;;;;;;;;;;12.40;99.90;;;;;;5160368;27;20380;-69
2022/04/13 06:42:36;;;;;;;;;;;12.30;99.90;;;;;;5160904;27;19923;-72
2022/04/13 06:45:03;;;;;;;;;;;12.30;99.90;;;;;;5179157;27;19929;-70
2022/04/13 06:47:29;;;;;;;;;;;12.40;99.90;;;;;;5178841;27;19930;-69
2022/04/13 06:49:55;;;;;;;;;;;12.40;99.90;;;;;;5159892;27;19978;-70
2022/04/13 06:52:20;;;;;;;;;;;12.50;99.90;;;;;;5178563;27;19922;-71
2022/04/13 06:54:46;;;;;;;;;;;12.50;99.90;;;;;;5178638;27;19923;-70
2022/04/13 06:57:12;;;;;;;;;;;12.60;99.90;;;;;;5160124;27;20013;-69
2022/04/13 06:59:38;;;;;;;;;;;12.60;99.90;;;;;;5173816;27;20514;-68
2022/04/13 07:02:16;;;;;;;;;;;12.60;99.90;;;;;;5167303;27;19923;-70
2022/04/13 07:04:42;;;;;;;;;;;12.80;99.90;;;;;;5156525;27;19950;-72
2022/04/13 07:07:07;;;;;;;;;;;12.90;99.90;;;;;;5161116;27;20386;-73
2022/04/13 07:09:33;;;;;;;;;;;12.90;99.90;;;;;;5178278;27;20285;-70
2022/04/13 07:11:59;;;;;;;;;;;13.00;99.90;;;;;;5159076;27;20378;-70
2022/04/13 07:14:24;;;;;;;;;;;13.20;99.90;;;;;;5178221;27;19923;-70
2022/04/13 07:16:50;;;;;;;;;;;13.10;99.90;;;;;;5160101;27;19944;-72
2022/04/13 07:19:16;;;;;;;;;;;13.10;99.90;;;;;;5178269;27;19929;-72
2022/04/13 07:21:41;;;;;;;;;;;13.40;99.90;;;;;;5178362;27;19978;-70
2022/04/13 07:24:07;;;;;;;;;;;13.30;99.90;;;;;;5178188;27;19945;-70
2022/04/13 07:26:32;;;;;;;;;;;13.30;99.90;;;;;;5178079;27;19922;-69
2022/04/13 07:28:58;;;;;;;;;;;13.40;99.90;;;;;;5178366;27;19922;-71
2022/04/13 07:31:24;;;;;;;;;;;12.80;99.90;;;;;;5178176;27;19929;-71
2022/04/13 07:33:50;;;;;;;;;;;13.50;99.90;;;;;;5178105;27;19970;-71
2022/04/13 07:36:15;;;;;;;;;;;13.60;99.90;;;;;;5159701;27;19929;-71
2022/04/13 07:38:41;;;;;;;;;;;13.70;99.90;;;;;;5177842;27;19927;-70
2022/04/13 07:41:06;;;;;;;;;;;13.80;99.90;;;;;;5177930;27;19926;-69
2022/04/13 07:43:32;;;;;;;;;;;13.80;99.90;;;;;;5177942;27;20280;-69
2022/04/13 07:45:57;;;;;;;;;;;13.90;99.90;;;;;;5178019;27;19922;-71
2022/04/13 07:48:23;;;;;;;;;;;14.00;99.90;;;;;;5177767;27;20345;-72
2022/04/13 07:50:49;;;;;;;;;;;14.10;99.90;;;;;;5177495;27;19923;-73
2022/04/13 07:53:15;;;;;;;;;;;14.10;99.90;;;;;;5177660;27;19946;-70
2022/04/13 07:55:41;;;;;;;;;;;14.20;99.90;;;;;;5159219;27;19934;-71
2022/04/13 07:58:06;;;;;;;;;;;14.30;99.90;;;;;;5158984;27;19931;-71
2022/04/13 08:00:32;;;;;;;;;;;14.40;99.90;;;;;;5177462;27;19923;-72
2022/04/13 08:02:58;;;;;;;;;;;14.40;99.90;;;;;;5177696;27;19923;-72
2022/04/13 08:05:23;;;;;;;;;;;14.50;99.90;;;;;;5177517;27;19923;-72
2022/04/13 08:07:49;;;;;;;;;;;14.60;99.90;;;;;;5177339;27;19922;-71
2022/04/13 08:10:15;;;;;;;;;;;14.70;99.90;;;;;;5177159;27;19923;-70
2022/04/13 08:12:41;;;;;;;;;;;14.70;99.90;;;;;;5177167;27;19929;-70
2022/04/13 08:15:07;;;;;;;;;;;14.80;99.90;;;;;;5177433;27;19934;-72
2022/04/13 08:17:41;;;;;;;;;;;14.70;99.90;;;;;;5176853;27;19923;-70
2022/04/13 08:20:08;;;;;;;;;;;14.90;99.90;;;;;;5158874;27;19933;-71
2022/04/13 08:22:34;;;;;;;;;;;14.90;99.90;;;;;;5176881;27;19930;-72
2022/04/13 08:25:00;;;;;;;;;;;15.00;99.90;;;;;;5158568;27;19923;-71
2022/04/13 08:27:25;;;;;;;;;;;15.10;99.90;;;;;;5176739;27;20346;-71
2022/04/13 08:29:51;;;;;;;;;;;15.10;99.90;;;;;;5177001;27;20073;-71
2022/04/13 08:32:17;;;;;;;;;;;15.20;99.90;;;;;;5176745;27;19923;-71
2022/04/13 08:34:43;;;;;;;;;;;15.30;99.90;;;;;;5176886;27;19973;-72
2022/04/13 08:37:10;;;;;;;;;;;15.40;99.90;;;;;;5158285;27;20286;-72
2022/04/13 08:39:36;;;;;;;;;;;15.40;99.90;;;;;;5176834;27;19976;-71
2022/04/13 08:42:07;;;;;;;;;;;15.50;99.90;;;;;;5158075;27;20338;-71
2022/04/13 08:44:42;;;;;;;;;;;15.50;99.90;;;;;;5176871;27;19966;-71
2022/04/13 08:47:11;;;;;;;;;;;15.50;99.90;;;;;;5176860;27;19923;-72
2022/04/13 08:49:39;;;;;;;;;;;15.50;99.90;;;;;;5176592;27;20018;-70
2022/04/13 08:52:05;;;;;;;;;;;16.60;99.90;;;;;;5176849;27;20021;-75
2022/04/13 08:54:32;;;;;;;;;;;15.50;99.90;;;;;;5157675;27;19977;-73
2022/04/13 08:56:57;;;;;;;;;;;15.40;99.90;;;;;;5176748;27;19930;-71
2022/04/13 08:59:42;;;;;;;;;;;15.40;99.90;;;;;;5176714;27;19923;-75
2022/04/13 09:02:17;;;;;;;;;;;15.30;99.90;;;;;;5158265;27;19973;-72
2022/04/13 09:04:44;;;;;;;;;;;15.30;99.90;;;;;;5157945;27;19923;-71
2022/04/13 09:07:11;;;;;;;;;;;15.80;99.90;;;;;;5176386;27;20301;-71
2022/04/13 09:09:39;;;;;;;;;;;15.20;99.90;;;;;;5176543;27;19923;-71
2022/04/13 09:12:07;;;;;;;;;;;15.20;99.90;;;;;;5176443;27;19930;-71
2022/04/13 09:14:32;;;;;;;;;;;15.30;99.90;;;;;;5157751;27;20297;-71
2022/04/13 09:16:59;;;;;;;;;;;15.30;99.90;;;;;;5176376;27;19930;-71
2022/04/13 09:19:25;;;;;;;;;;;14.90;99.90;;;;;;5176138;27;19930;-73
2022/04/13 09:21:51;;;;;;;;;;;15.40;99.90;;;;;;5176303;27;20426;-71
2022/04/13 09:24:18;;;;;;;;;;;15.40;99.90;;;;;;5176420;27;20289;-71
2022/04/13 09:26:45;;;;;;;;;;;15.40;99.90;;;;;;5175670;27;20011;-73
2022/04/13 09:29:10;;;;;;;;;;;15.40;99.90;;;;;;5156288;27;20366;-72
2022/04/13 09:31:36;;;;;;;;;;;15.50;99.90;;;;;;5176170;27;19929;-73
2022/04/13 09:34:02;;;;;;;;;;;15.50;99.90;;;;;;5157093;27;20417;-71
2022/04/13 09:36:28;;;;;;;;;;;15.60;99.90;;;;;;5176054;27;20412;-71
2022/04/13 09:38:56;;;;;;;;;;;15.70;99.90;;;;;;5176042;27;20496;-71
2022/04/13 09:41:31;;;;;;;;;;;15.70;99.90;;;;;;5157509;27;20021;-75
2022/04/13 09:43:56;;;;;;;;;;;15.70;99.90;;;;;;5176174;27;19930;-72
2022/04/13 09:46:26;;;;;;;;;;;15.70;99.90;;;;;;5176127;27;19922;-73
2022/04/13 09:49:06;;;;;;;;;;;15.80;99.90;;;;;;5176019;27;19927;-70
2022/04/13 09:51:36;;;;;;;;;;;15.90;99.90;;;;;;5175822;27;20368;-71
2022/04/13 09:54:09;;;;;;;;;;;16.00;99.90;;;;;;5175998;27;19978;-70
2022/04/13 09:56:38;;;;;;;;;;;16.00;99.90;;;;;;5176010;27;19980;-74
2022/04/13 09:59:07;;;;;;;;;;;16.10;99.90;;;;;;5157545;27;19922;-75
2022/04/13 10:01:33;;;;;;;;;;;16.20;99.90;;;;;;5175911;27;20054;-71
2022/04/13 10:03:59;;;;;;;;;;;16.30;99.90;;;;;;5175663;27;19923;-72
2022/04/13 10:06:30;;;;;;;;;;;16.30;99.90;;;;;;5175964;27;19992;-75
2022/04/13 10:09:00;;;;;;;;;;;16.40;99.90;;;;;;5175904;27;20029;-72
2022/04/13 10:11:26;;;;;;;;;;;16.40;99.90;;;;;;5175730;27;19930;-72
2022/04/13 10:13:51;;;;;;;;;;;16.50;99.90;;;;;;5175770;27;19927;-73
2022/04/13 10:16:17;;;;;;;;;;;16.70;99.90;;;;;;5175660;27;19966;-73
2022/04/13 10:18:59;;;;;;;;;;;16.80;99.90;;;;;;5175489;27;19966;-74
2022/04/13 10:21:34;;;;;;;;;;;16.90;99.90;;;;;;5175761;27;19923;-74
2022/04/13 10:23:59;;;;;;;;;;;17.10;99.90;;;;;;5154469;27;19923;-74
2022/04/13 10:26:25;;;;;;;;;;;17.00;99.90;;;;;;5168329;27;20297;-71
2022/04/13 10:28:51;;;;;;;;;;;17.20;99.90;;;;;;5156039;27;19927;-73
2022/04/13 10:31:16;;;;;;;;;;;17.30;99.90;;;;;;5154503;27;19975;-72
2022/04/13 10:33:46;;;;;;;;;;;17.40;99.90;;;;;;5162351;27;19923;-75
2022/04/13 10:36:12;;;;;;;;;;;17.50;99.90;;;;;;5136656;27;19934;-73
2022/04/13 10:38:37;;;;;;;;;;;17.50;99.90;;;;;;5170425;27;19923;-72
2022/04/13 10:41:03;;;;;;;;;;;17.60;99.90;;;;;;5176883;27;19930;-71
2022/04/13 10:43:28;;;;;;;;;;;17.70;99.90;;;;;;5165913;27;19931;-71
2022/04/13 10:45:54;;;;;;;;;;;17.70;99.90;;;;;;5158027;27;19923;-71
2022/04/13 10:48:22;;;;;;;;;;;17.80;99.90;;;;;;5158158;27;19923;-72
2022/04/13 10:50:54;;;;;;;;;;;17.90;99.90;;;;;;5162661;27;19923;-71
2022/04/13 10:53:23;;;;;;;;;;;17.90;99.90;;;;;;5160722;27;19923;-73
2022/04/13 10:55:51;;;;;;;;;;;17.90;99.90;;;;;;5169957;27;19930;-74
2022/04/13 10:58:36;;;;;;;;;;;18.00;99.90;;;;;;5167054;27;19975;-71
2022/04/13 11:01:03;;;;;;;;;;;18.10;99.90;;;;;;5165616;27;20013;-73
2022/04/13 11:03:32;;;;;;;;;;;17.70;99.90;;;;;;5169618;27;19923;-74
2022/04/13 11:05:57;;;;;;;;;;;18.30;99.90;;;;;;5165171;27;19927;-71
2022/04/13 11:08:28;;;;;;;;;;;18.30;99.90;;;;;;5175317;27;19967;-70
2022/04/13 11:10:54;;;;;;;;;;;18.40;99.90;;;;;;5139099;27;19930;-70
2022/04/13 11:13:20;;;;;;;;;;;18.50;99.90;;;;;;5157154;27;19931;-72
2022/04/13 11:15:46;;;;;;;;;;;18.40;99.90;;;;;;5161912;27;19927;-70
2022/04/13 11:18:20;;;;;;;;;;;18.40;99.90;;;;;;5178584;27;19927;-71
2022/04/13 11:21:00;;;;;;;;;;;18.40;99.90;;;;;;5178558;27;20009;-69
2022/04/13 11:23:56;;;;;;;;;;;18.40;99.90;;;;;;5159864;27;20424;-71
2022/04/13 11:26:33;;;;;;;;;;;17.50;99.90;;;;;;5073121;28;19924;-72
2022/04/13 11:29:10;;;;;;;;;;;18.30;99.90;;;;;;5073299;28;20490;-71
2022/04/13 11:31:54;;;;;;;;;;;18.30;99.90;;;;;;5073117;28;19968;-70
2022/04/13 11:34:29;;;;;;;;;;;18.20;99.90;;;;;;5072999;28;20030;-70
2022/04/13 11:36:58;;;;;;;;;;;18.20;99.90;;;;;;5072736;28;19925;-70
2022/04/13 11:39:42;;;;;;;;;;;18.10;99.90;;;;;;5056633;28;20006;-74
2022/04/13 11:42:28;;;;;;;;;;;18.10;99.90;;;;;;5073156;28;19976;-70
2022/04/13 11:45:01;;;;;;;;;;;18.10;99.90;;;;;;5071817;28;19924;-73
2022/04/13 11:47:37;;;;;;;;;;;18.10;99.90;;;;;;5069588;28;19924;-71
2022/04/13 11:50:18;;;;;;;;;;;18.10;99.90;;;;;;5062119;28;19928;-71
2022/04/13 11:52:49;;;;;;;;;;;18.10;99.90;;;;;;5072157;28;19924;-71
2022/04/13 11:55:18;;;;;;;;;;;18.10;99.90;;;;;;5072785;28;19924;-70
2022/04/13 11:58:02;;;;;;;;;;;18.10;99.90;;;;;;5072771;28;19924;-73
2022/04/13 12:00:40;;;;;;;;;;;18.20;99.90;;;;;;5072776;28;20023;-70
2022/04/13 12:03:09;;;;;;;;;;;18.20;99.90;;;;;;5113142;27;19999;-73
2022/04/13 12:05:38;;;;;;;;;;;18.30;99.90;;;;;;5135993;27;19923;-70
2022/04/13 12:08:14;;;;;;;;;;;18.30;99.90;;;;;;5135839;27;20363;-70
2022/04/13 12:10:44;;;;;;;;;;;18.30;99.90;;;;;;5134847;27;20019;-71
2022/04/13 12:13:10;;;;;;;;;;;18.30;99.90;;;;;;5135891;27;20366;-71
2022/04/13 12:15:52;;;;;;;;;;;18.30;99.90;;;;;;5135800;27;19930;-69
2022/04/13 12:18:22;;;;;;;;;;;18.30;99.90;;;;;;5134428;27;20282;-70
2022/04/13 12:20:49;;;;;;;;;;;18.20;99.90;;;;;;5135716;27;19930;-71
2022/04/13 12:23:15;;;;;;;;;;;18.20;99.90;;;;;;5135687;27;19923;-71
2022/04/13 12:25:42;;;;;;;;;;;18.20;99.90;;;;;;5134676;27;19923;-72
2022/04/13 12:28:07;;;;;;;;;;;18.20;99.90;;;;;;5150815;27;19923;-69
2022/04/13 12:30:33;;;;;;;;;;;18.60;99.90;;;;;;5154948;27;19929;-72
2022/04/13 12:32:58;;;;;;;;;;;18.10;99.90;;;;;;5155215;27;19923;-70
2022/04/13 12:35:24;;;;;;;;;;;18.00;99.90;;;;;;5155052;27;19958;-72
2022/04/13 12:37:50;;;;;;;;;;;18.00;99.90;;;;;;5156184;27;19923;-70
2022/04/13 12:40:20;;;;;;;;;;;18.00;99.90;;;;;;5156147;27;19929;-71
2022/04/13 12:42:46;;;;;;;;;;;17.90;99.90;;;;;;5155130;27;19971;-72
2022/04/13 12:45:11;;;;;;;;;;;18.00;99.90;;;;;;5155041;27;20009;-72
2022/04/13 12:47:47;;;;;;;;;;;18.00;99.90;;;;;;5155752;27;19975;-70
2022/04/13 12:50:13;;;;;;;;;;;18.00;99.90;;;;;;5154500;27;19974;-72
2022/04/13 12:52:39;;;;;;;;;;;18.00;99.90;;;;;;5155829;27;20010;-71
2022/04/13 12:55:04;;;;;;;;;;;17.90;99.90;;;;;;5155851;27;19930;-70
2022/04/13 12:57:30;;;;;;;;;;;17.90;99.90;;;;;;5155715;27;19923;-73
2022/04/13 12:59:56;;;;;;;;;;;17.90;99.90;;;;;;5155819;27;20306;-71
2022/04/13 13:02:21;;;;;;;;;;;17.90;99.90;;;;;;5154170;27;19981;-72
2022/04/13 13:04:48;;;;;;;;;;;17.90;99.90;;;;;;5154491;27;19963;-70
2022/04/13 13:07:14;;;;;;;;;;;17.80;99.90;;;;;;5154502;27;19927;-73
2022/04/13 13:09:43;;;;;;;;;;;17.80;99.90;;;;;;5155586;27;19923;-73
2022/04/13 13:12:12;;;;;;;;;;;17.60;99.90;;;;;;5154558;27;19930;-71
2022/04/13 13:14:38;;;;;;;;;;;17.70;99.90;;;;;;5155378;27;19927;-71
2022/04/13 13:17:39;;;;;;;;;;;18.70;99.90;;;;;;5155377;27;20005;-70
2022/04/13 13:20:13;;;;;;;;;;;17.60;99.90;;;;;;5091363;28;20390;-69
2022/04/13 13:22:44;;;;;;;;;;;17.50;99.90;;;;;;5091404;28;19931;-71
2022/04/13 13:25:13;;;;;;;;;;;17.40;99.90;;;;;;5091528;28;19930;-72
2022/04/13 13:27:41;;;;;;;;;;;17.30;99.90;;;;;;5091329;28;20272;-71
2022/04/13 13:30:11;;;;;;;;;;;17.30;99.90;;;;;;5091453;28;19928;-71
2022/04/13 13:32:37;;;;;;;;;;;17.30;99.90;;;;;;5091566;28;20019;-69
2022/04/13 13:35:05;;;;;;;;;;;17.20;99.90;;;;;;5074576;28;19924;-69
2022/04/13 13:37:37;;;;;;;;;;;17.10;99.90;;;;;;5091546;28;20389;-71
2022/04/13 13:40:03;;;;;;;;;;;17.00;99.90;;;;;;5091415;28;19924;-69
2022/04/13 13:42:29;;;;;;;;;;;16.70;99.90;;;;;;5091327;28;20417;-70
2022/04/13 13:45:13;;;;;;;;;;;16.90;99.90;;;;;;5091427;28;20027;-72
2022/04/13 13:47:39;;;;;;;;;;;16.80;99.90;;;;;;5074852;28;20284;-72
2022/04/13 13:50:05;;;;;;;;;;;16.70;99.90;;;;;;5091239;28;19924;-70
2022/04/13 13:52:31;;;;;;;;;;;16.70;99.90;;;;;;5074588;28;19924;-70
2022/04/13 13:54:57;;;;;;;;;;;16.70;99.90;;;;;;5086079;28;20019;-70
2022/04/13 13:57:22;;;;;;;;;;;16.60;99.90;;;;;;5134599;28;19924;-72
2022/04/13 13:59:48;;;;;;;;;;;16.60;99.90;;;;;;5134539;28;19923;-69
2022/04/13 14:02:13;;;;;;;;;;;16.70;99.90;;;;;;5134426;28;20282;-71
2022/04/13 14:04:39;;;;;;;;;;;16.60;99.90;;;;;;5134315;27;19924;-71
2022/04/13 14:07:04;;;;;;;;;;;16.70;99.90;;;;;;5134283;28;19924;-71
2022/04/13 14:09:30;;;;;;;;;;;16.70;99.90;;;;;;5134247;27;19923;-71
2022/04/13 14:11:56;;;;;;;;;;;16.10;99.90;;;;;;5134119;27;19923;-70
2022/04/13 14:14:21;;;;;;;;;;;16.60;99.90;;;;;;5135383;27;20382;-70
2022/04/13 14:16:48;;;;;;;;;;;16.80;99.90;;;;;;5137272;27;19924;-71